Observation data for Brownfield on 11/09/2019      Previous  Date       Current Mesonet Observations  Soil Data  Daily Summary Page  Observations in Plain Language
KBWS 090600Z 25004KT 05/04 A303 RMK A01 T00450041  RH  099%=      5-min Rain = 0
KBWS 090605Z 25005KT 05/04 A303 RMK A01 T00450041  RH  099%=      5-min Rain = 0
KBWS 090610Z 25005KT 04/04 A303 RMK A01 T00440041  RH  099%=      5-min Rain = 0
KBWS 090615Z 25005KT 05/04 A303 RMK A01 T00450041  RH  099%=      5-min Rain = 0
KBWS 090620Z 25006KT 05/04 A303 RMK A01 T00470043  RH  099%=      5-min Rain = 0
KBWS 090625Z 26006KT 05/04 A303 RMK A01 T00460043  RH  099%=      5-min Rain = 0
KBWS 090630Z 26006KT 05/04 A3031 RMK A01 T00470043  RH  099%=      5-min Rain = 0
KBWS 090635Z 26006KT 05/04 A3031 RMK A01 T00470043  RH  099%=      5-min Rain = 0
KBWS 090640Z 26006KT 05/04 A3031 RMK A01 T00460043  RH  099%=      5-min Rain = 0
KBWS 090645Z 26006KT 05/04 A3031 RMK A01 T00460043  RH  099%=      5-min Rain = 0
KBWS 090650Z 26007KT 05/04 A3031 RMK A01 T00480044  RH  099%=      5-min Rain = 0
KBWS 090655Z 26007KT 05/05 A303 RMK A01 T00490045  RH  099%=      5-min Rain = 0
KBWS 090700Z 26007KT 05/04 A3031 RMK A01 T00480044  RH  099%=      5-min Rain = 0
KBWS 090705Z 25007KT 05/04 A303 RMK A01 T00470043  RH  099%=      5-min Rain = 0
KBWS 090710Z 25007KT 04/04 A303 RMK A01 T00440040  RH  099%=      5-min Rain = 0
KBWS 090715Z 26006KT 04/04 A303 RMK A01 T00430039  RH  099%=      5-min Rain = 0
KBWS 090720Z 26006KT 05/04 A303 RMK A01 T00450041  RH  099%=      5-min Rain = 0
KBWS 090725Z 26007KT 05/05 A303 RMK A01 T00490045  RH  099%=      5-min Rain = 0
KBWS 090730Z 27007KT 05/05 A303 RMK A01 T00490045  RH  099%=      5-min Rain = 0
KBWS 090735Z 27007KT 05/05 A303 RMK A01 T00490045  RH  099%=      5-min Rain = 0
KBWS 090740Z 26007KT 05/05 A3029 RMK A01 T00500045  RH  099%=      5-min Rain = 0
KBWS 090745Z 26008KT 05/05 A3029 RMK A01 T00490045  RH  099%=      5-min Rain = 0
KBWS 090750Z 26008KT 05/04 A3029 RMK A01 T00490044  RH  099%=      5-min Rain = 0
KBWS 090755Z 26007KT 05/04 A3029 RMK A01 T00470042  RH  098%=      5-min Rain = 0
KBWS 090800Z 25008KT 05/04 A3028 RMK A01 T00450040  RH  099%=      5-min Rain = 0
KBWS 090805Z 25008KT 04/04 A3028 RMK A01 T00420037  RH  098%=      5-min Rain = 0
KBWS 090810Z 25008KT 04/04 A3028 RMK A01 T00400035  RH  098%=      5-min Rain = 0
KBWS 090815Z 25007KT 04/04 A3028 RMK A01 T00400035  RH  099%=      5-min Rain = 0
KBWS 090820Z 25007KT 04/04 A3027 RMK A01 T00390035  RH  099%=      5-min Rain = 0
KBWS 090825Z 25007KT 04/04 A3027 RMK A01 T00390035  RH  099%=      5-min Rain = 0
KBWS 090830Z 25007KT 04/04 A3027 RMK A01 T00410037  RH  099%=      5-min Rain = 0
KBWS 090835Z 25008KT 04/04 A3027 RMK A01 T00420039  RH  099%=      5-min Rain = 0
KBWS 090840Z 25007KT 04/04 A3027 RMK A01 T00440040  RH  099%=      5-min Rain = 0
KBWS 090845Z 26007KT 04/04 A3027 RMK A01 T00440040  RH  099%=      5-min Rain = 0
KBWS 090850Z 25008KT 05/04 A3026 RMK A01 T00450041  RH  099%=      5-min Rain = 0
KBWS 090855Z 26008KT 05/04 A3026 RMK A01 T00460042  RH  099%=      5-min Rain = 0
KBWS 090900Z 26009KT 05/04 A3026 RMK A01 T00470043  RH  099%=      5-min Rain = 0
KBWS 090905Z 25009KT 05/04 A3026 RMK A01 T00480044  RH  099%=      5-min Rain = 0
KBWS 090910Z 25009KT 05/04 A3026 RMK A01 T00470043  RH  099%=      5-min Rain = 0
KBWS 090915Z 26009KT 05/04 A3026 RMK A01 T00470043  RH  099%=      5-min Rain = 0
KBWS 090920Z 26009KT 05/04 A3026 RMK A01 T00480044  RH  099%=      5-min Rain = 0
KBWS 090925Z 25009KT 05/04 A3025 RMK A01 T00470043  RH  099%=      5-min Rain = 0
KBWS 090930Z 26009KT 05/04 A3026 RMK A01 T00460042  RH  099%=      5-min Rain = 0
KBWS 090935Z 26009KT 05/04 A3026 RMK A01 T00460042  RH  099%=      5-min Rain = 0
KBWS 090940Z 26009KT 05/04 A3025 RMK A01 T00470043  RH  099%=      5-min Rain = 0
KBWS 090945Z 27007KT 05/05 A3025 RMK A01 T00490045  RH  099%=      5-min Rain = 0
KBWS 090950Z 27008KT 05/04 A3025 RMK A01 T00480044  RH  099%=      5-min Rain = 0
KBWS 090955Z 27008KT 05/04 A3025 RMK A01 T00480044  RH  099%=      5-min Rain = 0
KBWS 091000Z 27008KT 05/04 A3025 RMK A01 T00480044  RH  099%=      5-min Rain = 0
KBWS 091005Z 27008KT 05/04 A3025 RMK A01 T00480044  RH  099%=      5-min Rain = 0
KBWS 091010Z 27008KT 05/04 A3025 RMK A01 T00480044  RH  099%=      5-min Rain = 0
KBWS 091015Z 27008KT 05/04 A3025 RMK A01 T00470042  RH  099%=      5-min Rain = 0
KBWS 091020Z 28009KT 05/04 A3025 RMK A01 T00470043  RH  099%=      5-min Rain = 0
KBWS 091025Z 28010KT 05/04 A3025 RMK A01 T00490044  RH  099%=      5-min Rain = 0
KBWS 091030Z 28009KT 05/05 A3025 RMK A01 T00500045  RH  099%=      5-min Rain = 0
KBWS 091035Z 28009KT 05/04 A3025 RMK A01 T00490044  RH  098%=      5-min Rain = 0
KBWS 091040Z 29009KT 05/04 A3025 RMK A01 T00480043  RH  098%=      5-min Rain = 0
KBWS 091045Z 30008KT 05/04 A3025 RMK A01 T00450040  RH  098%=      5-min Rain = 0
KBWS 091050Z 29007KT 04/04 A3025 RMK A01 T00430037  RH  098%=      5-min Rain = 0
KBWS 091055Z 29008KT 04/04 A3025 RMK A01 T00420037  RH  098%=      5-min Rain = 0
KBWS 091100Z 30008KT 04/04 A3025 RMK A01 T00420038  RH  099%=      5-min Rain = 0
KBWS 091105Z 30007KT 04/04 A3025 RMK A01 T00410036  RH  099%=      5-min Rain = 0
KBWS 091110Z 30007KT 04/04 A3025 RMK A01 T00410037  RH  099%=      5-min Rain = 0
KBWS 091115Z 30007KT 04/04 A3025 RMK A01 T00410037  RH  099%=      5-min Rain = 0
KBWS 091120Z 30008KT 04/04 A3025 RMK A01 T00410037  RH  099%=      5-min Rain = 0
KBWS 091125Z 30007KT 04/04 A3026 RMK A01 T00410037  RH  099%=      5-min Rain = 0
KBWS 091130Z 30008KT 04/04 A3026 RMK A01 T00400036  RH  099%=      5-min Rain = 0
KBWS 091135Z 30007KT 04/04 A3026 RMK A01 T00390035  RH  099%=      5-min Rain = 0
KBWS 091140Z 29007KT 04/03 A3026 RMK A01 T00380034  RH  099%=      5-min Rain = 0
KBWS 091145Z 29007KT 04/03 A3026 RMK A01 T00380034  RH  099%=      5-min Rain = 0
KBWS 091150Z 30007KT 04/03 A3026 RMK A01 T00370033  RH  099%=      5-min Rain = 0
KBWS 091155Z 30006KT 04/03 A3026 RMK A01 T00370034  RH  099%=      5-min Rain = 0
KBWS 091200Z 30005KT 04/03 A3026 RMK A01 T00360032  RH  099%=      5-min Rain = 0
KBWS 091205Z 31006KT 04/03 A3026 RMK A01 T00360032  RH  099%=      5-min Rain = 0
KBWS 091210Z 30006KT 04/03 A3026 RMK A01 T00350031  RH  099%=      5-min Rain = 0
KBWS 091215Z 30006KT 03/03 A3026 RMK A01 T00330030  RH  099%=      5-min Rain = 0
KBWS 091220Z 30005KT 03/03 A3026 RMK A01 T00320028  RH  099%=      5-min Rain = 0
KBWS 091225Z 30005KT 03/03 A3026 RMK A01 T00310027  RH  099%=      5-min Rain = 0
KBWS 091230Z 29005KT 03/03 A3026 RMK A01 T00310027  RH  099%=      5-min Rain = 0
KBWS 091235Z 30005KT 03/03 A3027 RMK A01 T00300026  RH  099%=      5-min Rain = 0
KBWS 091240Z 30004KT 03/03 A3027 RMK A01 T00300026  RH  099%=      5-min Rain = 0
KBWS 091245Z 29004KT 03/03 A3027 RMK A01 T00290025  RH  099%=      5-min Rain = 0
KBWS 091250Z 28004KT 03/02 A3027 RMK A01 T00270023  RH  099%=      5-min Rain = 0
KBWS 091255Z 28005KT 03/02 A3027 RMK A01 T00250021  RH  099%=      5-min Rain = 0
KBWS 091300Z 28005KT 03/02 A3027 RMK A01 T00260022  RH  099%=      5-min Rain = 0
KBWS 091305Z 29004KT 03/02 A3027 RMK A01 T00270023  RH  099%=      5-min Rain = 0
KBWS 091310Z 30006KT 03/02 A3027 RMK A01 T00260022  RH  099%=      5-min Rain = 0
KBWS 091315Z 30006KT 03/02 A3027 RMK A01 T00260023  RH  099%=      5-min Rain = 0
KBWS 091320Z 30005KT 03/02 A3027 RMK A01 T00260023  RH  099%=      5-min Rain = 0
KBWS 091325Z 31005KT 03/02 A3027 RMK A01 T00270023  RH  099%=      5-min Rain = 0
KBWS 091330Z 30004KT 03/03 A3027 RMK A01 T00280025  RH  099%=      5-min Rain = 0
KBWS 091335Z 30005KT 03/03 A3027 RMK A01 T00300026  RH  099%=      5-min Rain = 0
KBWS 091340Z 29006KT 03/03 A3027 RMK A01 T00310028  RH  099%=      5-min Rain = 0
KBWS 091345Z 29007KT 03/03 A3027 RMK A01 T00340031  RH  099%=      5-min Rain = 0
KBWS 091350Z 29007KT 04/03 A3027 RMK A01 T00360033  RH  099%=      5-min Rain = 0
KBWS 091355Z 29007KT 04/04 A3027 RMK A01 T00390035  RH  099%=      5-min Rain = 0
KBWS 091400Z 30007KT 04/04 A3027 RMK A01 T00410036  RH  099%=      5-min Rain = 0
KBWS 091405Z 30008KT 04/04 A3027 RMK A01 T00430038  RH  098%=      5-min Rain = 0
KBWS 091410Z 30008KT 05/04 A3027 RMK A01 T00460040  RH  098%=      5-min Rain = 0
KBWS 091415Z 29007KT 05/04 A3026 RMK A01 T00490042  RH  097%=      5-min Rain = 0
KBWS 091420Z 29007KT 05/05 A3027 RMK A01 T00530045  RH  097%=      5-min Rain = 0
KBWS 091425Z 30005KT 06/05 A3027 RMK A01 T00560048  RH  096%=      5-min Rain = 0
KBWS 091430Z 30004KT 06/05 A3027 RMK A01 T00610052  RH  096%=      5-min Rain = 0
KBWS 091435Z 30005KT 07/06 A3027 RMK A01 T00660056  RH  095%=      5-min Rain = 0
KBWS 091440Z 29007KT 07/06 A3027 RMK A01 T00700057  RH  094%=      5-min Rain = 0
KBWS 091445Z 30008KT 07/06 A3027 RMK A01 T00720058  RH  093%=      5-min Rain = 0
KBWS 091450Z 29007KT 08/06 A3027 RMK A01 T00760061  RH  093%=      5-min Rain = 0
KBWS 091455Z 29007KT 08/06 A3028 RMK A01 T00790063  RH  092%=      5-min Rain = 0
KBWS 091500Z 29007KT 08/07 A3028 RMK A01 T00820066  RH  092%=      5-min Rain = 0
KBWS 091505Z 28007KT 09/07 A3028 RMK A01 T00850069  RH  092%=      5-min Rain = 0
KBWS 091510Z 27006KT 09/07 A3028 RMK A01 T00890072  RH  091%=      5-min Rain = 0
KBWS 091515Z 27005KT 09/07 A3028 RMK A01 T00920073  RH  090%=      5-min Rain = 0
KBWS 091520Z 27005KT 10/08 A3028 RMK A01 T00960076  RH  089%=      5-min Rain = 0
KBWS 091525Z 27005KT 10/08 A3028 RMK A01 T00990076  RH  088%=      5-min Rain = 0
KBWS 091530Z 26004KT 10/08 A3028 RMK A01 T01010077  RH  087%=      5-min Rain = 0
KBWS 091535Z 24004KT 10/08 A3028 RMK A01 T01030077  RH  086%=      5-min Rain = 0
KBWS 091540Z 24004KT 11/08 A3028 RMK A01 T01050080  RH  087%=      5-min Rain = 0
KBWS 091545Z 24005KT 11/08 A3028 RMK A01 T01070080  RH  086%=      5-min Rain = 0
KBWS 091550Z 25005KT 11/08 A3028 RMK A01 T01090081  RH  085%=      5-min Rain = 0
KBWS 091555Z 25005KT 11/08 A3028 RMK A01 T01110081  RH  084%=      5-min Rain = 0
KBWS 091600Z 26004KT 12/08 A3028 RMK A01 T01150084  RH  084%=      5-min Rain = 0
KBWS 091605Z 28005KT 12/09 A3028 RMK A01 T01180086  RH  083%=      5-min Rain = 0
KBWS 091610Z 27004KT 12/09 A3029 RMK A01 T01210088  RH  082%=      5-min Rain = 0
KBWS 091615Z 26003KT 13/09 A3028 RMK A01 T01250088  RH  081%=      5-min Rain = 0
KBWS 091620Z 29005KT 13/09 A3028 RMK A01 T01280090  RH  080%=      5-min Rain = 0
KBWS 091625Z 28004KT 13/09 A3028 RMK A01 T01290090  RH  079%=      5-min Rain = 0
KBWS 091630Z 27003KT 13/09 A3028 RMK A01 T01310090  RH  078%=      5-min Rain = 0
KBWS 091635Z 27003KT 14/09 A3028 RMK A01 T01360093  RH  078%=      5-min Rain = 0
KBWS 091640Z 29003KT 14/09 A3028 RMK A01 T01380093  RH  077%=      5-min Rain = 0
KBWS 091645Z 27003KT 14/09 A3028 RMK A01 T01390092  RH  075%=      5-min Rain = 0
KBWS 091650Z 26003KT 14/09 A3028 RMK A01 T01420094  RH  075%=      5-min Rain = 0
KBWS 091655Z 25004KT 15/10 A3027 RMK A01 T01460095  RH  074%=      5-min Rain = 0
KBWS 091700Z 26004KT 15/10 A3027 RMK A01 T01490095  RH  072%=      5-min Rain = 0
KBWS 091705Z 26004KT 15/09 A3027 RMK A01 T01500093  RH  071%=      5-min Rain = 0
KBWS 091710Z 25006KT 15/09 A3027 RMK A01 T01530094  RH  070%=      5-min Rain = 0
KBWS 091715Z 24006KT 15/09 A3027 RMK A01 T01540094  RH  069%=      5-min Rain = 0
KBWS 091720Z 25007KT 16/10 A3027 RMK A01 T01570095  RH  069%=      5-min Rain = 0
KBWS 091725Z 24006KT 16/10 A3027 RMK A01 T01600096  RH  067%=      5-min Rain = 0
KBWS 091730Z 24008KT 16/09 A3027 RMK A01 T01630092  RH  065%=      5-min Rain = 0
KBWS 091735Z 25008KT 17/09 A3026 RMK A01 T01650091  RH  064%=      5-min Rain = 0
KBWS 091740Z 25007KT 17/09 A3026 RMK A01 T01670092  RH  063%=      5-min Rain = 0
KBWS 091745Z 26008KT 17/09 A3026 RMK A01 T01680094  RH  064%=      5-min Rain = 0
KBWS 091750Z 25008KT 17/09 A3026 RMK A01 T01710090  RH  061%=      5-min Rain = 0
KBWS 091755Z 24007KT 17/09 A3025 RMK A01 T01740090  RH  060%=      5-min Rain = 0
KBWS 091800Z 25008KT 18/09 A3025 RMK A01 T01750087  RH  058%=      5-min Rain = 0
KBWS 091805Z 25008KT 18/09 A3025 RMK A01 T01750086  RH  057%=      5-min Rain = 0
KBWS 091810Z 25008KT 18/09 A3024 RMK A01 T01770090  RH  058%=      5-min Rain = 0
KBWS 091815Z 25008KT 18/09 A3024 RMK A01 T01790090  RH  058%=      5-min Rain = 0
KBWS 091820Z 24007KT 18/09 A3024 RMK A01 T01810089  RH  057%=      5-min Rain = 0
KBWS 091825Z 24007KT 18/09 A3023 RMK A01 T01840091  RH  056%=      5-min Rain = 0
KBWS 091830Z 22008KT 19/09 A3023 RMK A01 T01850090  RH  055%=      5-min Rain = 0
KBWS 091835Z 22008KT 19/09 A3023 RMK A01 T01860087  RH  054%=      5-min Rain = 0
KBWS 091840Z 24008KT 19/08 A3022 RMK A01 T01870084  RH  053%=      5-min Rain = 0
KBWS 091845Z 23008KT 19/09 A3022 RMK A01 T01900086  RH  052%=      5-min Rain = 0
KBWS 091850Z 23009KT 19/08 A3022 RMK A01 T01900084  RH  052%=      5-min Rain = 0
KBWS 091855Z 22008KT 19/09 A3021 RMK A01 T01900090  RH  054%=      5-min Rain = 0
KBWS 091900Z 22007KT 19/09 A3021 RMK A01 T01910091  RH  054%=      5-min Rain = 0
KBWS 091905Z 23007KT 19/09 A3021 RMK A01 T01920087  RH  052%=      5-min Rain = 0
KBWS 091910Z 21007KT 19/09 A302 RMK A01 T01930085  RH  051%=      5-min Rain = 0
KBWS 091915Z 23008KT 20/08 A302 RMK A01 T01960079  RH  048%=      5-min Rain = 0
KBWS 091920Z 22008KT 20/07 A302 RMK A01 T01950071  RH  046%=      5-min Rain = 0
KBWS 091925Z 21008KT 20/07 A3019 RMK A01 T01950074  RH  047%=      5-min Rain = 0
KBWS 091930Z 21007KT 20/07 A3019 RMK A01 T01970067  RH  044%=      5-min Rain = 0
KBWS 091935Z 21006KT 20/07 A3019 RMK A01 T02000070  RH  044%=      5-min Rain = 0
KBWS 091940Z 23007G12KT 21/07 A3019 RMK A01 T02060074  RH  044%=      5-min Rain = 0
KBWS 091945Z 22007KT 20/07 A3018 RMK A01 T02020073  RH  044%=      5-min Rain = 0
KBWS 091950Z 22008KT 20/07 A3018 RMK A01 T02020069  RH  043%=      5-min Rain = 0
KBWS 091955Z 21009KT 20/07 A3018 RMK A01 T02020069  RH  043%=      5-min Rain = 0
KBWS 092000Z 21009KT 20/06 A3018 RMK A01 T02040064  RH  041%=      5-min Rain = 0
KBWS 092005Z 21008KT 20/06 A3017 RMK A01 T02040062  RH  041%=      5-min Rain = 0
KBWS 092010Z 21007KT 21/07 A3017 RMK A01 T02060072  RH  043%=      5-min Rain = 0
KBWS 092015Z 21007KT 21/07 A3017 RMK A01 T02050071  RH  043%=      5-min Rain = 0
KBWS 092020Z 20007KT 21/08 A3017 RMK A01 T02060079  RH  045%=      5-min Rain = 0
KBWS 092025Z 21007KT 21/08 A3017 RMK A01 T02080081  RH  045%=      5-min Rain = 0
KBWS 092030Z 21007KT 21/08 A3017 RMK A01 T02080079  RH  045%=      5-min Rain = 0
KBWS 092035Z 21007KT 21/07 A3016 RMK A01 T02080074  RH  043%=      5-min Rain = 0
KBWS 092040Z 21007KT 21/07 A3016 RMK A01 T02080073  RH  043%=      5-min Rain = 0
KBWS 092045Z 21007KT 21/07 A3016 RMK A01 T02110073  RH  042%=      5-min Rain = 0
KBWS 092050Z 21007KT 21/07 A3016 RMK A01 T02100071  RH  042%=      5-min Rain = 0
KBWS 092055Z 21006G11KT 21/07 A3016 RMK A01 T02100069  RH  041%=      5-min Rain = 0
KBWS 092100Z 22007KT 21/07 A3015 RMK A01 T02100069  RH  041%=      5-min Rain = 0
KBWS 092105Z 21006KT 21/06 A3015 RMK A01 T02070064  RH  040%=      5-min Rain = 0
KBWS 092110Z 22005KT 21/06 A3015 RMK A01 T02100064  RH  040%=      5-min Rain = 0
KBWS 092115Z 21006KT 21/07 A3015 RMK A01 T02110065  RH  040%=      5-min Rain = 0
KBWS 092120Z 20007KT 21/07 A3015 RMK A01 T02100070  RH  041%=      5-min Rain = 0
KBWS 092125Z 21006KT 21/06 A3015 RMK A01 T02110062  RH  039%=      5-min Rain = 0
KBWS 092130Z 19006KT 21/07 A3015 RMK A01 T02070071  RH  042%=      5-min Rain = 0
KBWS 092135Z 21006KT 21/07 A3014 RMK A01 T02070072  RH  043%=      5-min Rain = 0
KBWS 092140Z 20006KT 21/07 A3014 RMK A01 T02060065  RH  041%=      5-min Rain = 0
KBWS 092145Z 20008KT 21/07 A3014 RMK A01 T02050066  RH  042%=      5-min Rain = 0
KBWS 092150Z 20008KT 21/06 A3014 RMK A01 T02050064  RH  041%=      5-min Rain = 0
KBWS 092155Z 19007KT 21/06 A3014 RMK A01 T02060059  RH  039%=      5-min Rain = 0
KBWS 092200Z 20008KT 21/05 A3014 RMK A01 T02070048  RH  036%=      5-min Rain = 0
KBWS 092205Z 19008KT 21/04 A3014 RMK A01 T02070043  RH  035%=      5-min Rain = 0
KBWS 092210Z 20009KT 21/05 A3014 RMK A01 T02060047  RH  036%=      5-min Rain = 0
KBWS 092215Z 20009KT 21/04 A3014 RMK A01 T02060042  RH  035%=      5-min Rain = 0
KBWS 092220Z 20008KT 21/05 A3014 RMK A01 T02060046  RH  036%=      5-min Rain = 0
KBWS 092225Z 20009KT 21/04 A3014 RMK A01 T02060044  RH  035%=      5-min Rain = 0
KBWS 092230Z 20008KT 21/05 A3014 RMK A01 T02060048  RH  036%=      5-min Rain = 0
KBWS 092235Z 20007KT 20/05 A3013 RMK A01 T02040052  RH  038%=      5-min Rain = 0
KBWS 092240Z 20007KT 20/05 A3013 RMK A01 T02020054  RH  039%=      5-min Rain = 0
KBWS 092245Z 20007KT 20/05 A3014 RMK A01 T01990053  RH  039%=      5-min Rain = 0
KBWS 092250Z 20007KT 20/05 A3014 RMK A01 T01960054  RH  040%=      5-min Rain = 0
KBWS 092255Z 19006KT 19/06 A3014 RMK A01 T01930062  RH  043%=      5-min Rain = 0
KBWS 092300Z 20006KT 19/07 A3014 RMK A01 T01890066  RH  046%=      5-min Rain = 0
KBWS 092305Z 19006KT 19/07 A3014 RMK A01 T01860068  RH  047%=      5-min Rain = 0
KBWS 092310Z 18006KT 18/08 A3013 RMK A01 T01810076  RH  052%=      5-min Rain = 0
KBWS 092315Z 19006KT 18/08 A3013 RMK A01 T01780080  RH  054%=      5-min Rain = 0
KBWS 092320Z 19006KT 18/08 A3013 RMK A01 T01760078  RH  054%=      5-min Rain = 0
KBWS 092325Z 19007KT 17/08 A3013 RMK A01 T01710076  RH  055%=      5-min Rain = 0
KBWS 092330Z 19007KT 17/07 A3013 RMK A01 T01670074  RH  056%=      5-min Rain = 0
KBWS 092335Z 19006KT 16/07 A3013 RMK A01 T01630073  RH  057%=      5-min Rain = 0
KBWS 092340Z 19006KT 16/07 A3013 RMK A01 T01600072  RH  057%=      5-min Rain = 0
KBWS 092345Z 19006KT 16/07 A3013 RMK A01 T01570071  RH  058%=      5-min Rain = 0
KBWS 092350Z 19006KT 15/07 A3013 RMK A01 T01510072  RH  061%=      5-min Rain = 0
KBWS 092355Z 19006KT 15/07 A3013 RMK A01 T01470072  RH  062%=      5-min Rain = 0
KBWS 100000Z 19006KT 15/07 A3013 RMK A01 T01460071  RH  062%=      5-min Rain = 0
KBWS 100005Z 19007KT 14/07 A3013 RMK A01 T01430071  RH  063%=      5-min Rain = 0
KBWS 100010Z 18007KT 14/07 A3013 RMK A01 T01410070  RH  064%=      5-min Rain = 0
KBWS 100015Z 18007KT 14/07 A3013 RMK A01 T01360070  RH  066%=      5-min Rain = 0
KBWS 100020Z 18006KT 14/07 A3013 RMK A01 T01360070  RH  066%=      5-min Rain = 0
KBWS 100025Z 18007KT 14/07 A3013 RMK A01 T01360069  RH  066%=      5-min Rain = 0
KBWS 100030Z 18007KT 13/07 A3013 RMK A01 T01340071  RH  067%=      5-min Rain = 0
KBWS 100035Z 18007KT 13/07 A3013 RMK A01 T01320071  RH  068%=      5-min Rain = 0
KBWS 100040Z 18007KT 13/07 A3013 RMK A01 T01310071  RH  068%=      5-min Rain = 0
KBWS 100045Z 18007KT 13/07 A3013 RMK A01 T01300070  RH  069%=      5-min Rain = 0
KBWS 100050Z 18007KT 13/07 A3013 RMK A01 T01290069  RH  068%=      5-min Rain = 0
KBWS 100055Z 18007KT 13/07 A3013 RMK A01 T01290068  RH  068%=      5-min Rain = 0
KBWS 100100Z 18007KT 13/07 A3013 RMK A01 T01280067  RH  068%=      5-min Rain = 0
KBWS 100105Z 18008KT 13/07 A3014 RMK A01 T01270067  RH  069%=      5-min Rain = 0
KBWS 100110Z 18008KT 13/07 A3014 RMK A01 T01250067  RH  069%=      5-min Rain = 0
KBWS 100115Z 18008KT 12/07 A3014 RMK A01 T01230066  RH  070%=      5-min Rain = 0
KBWS 100120Z 18008KT 12/06 A3014 RMK A01 T01210064  RH  070%=      5-min Rain = 0
KBWS 100125Z 18008KT 12/06 A3014 RMK A01 T01200064  RH  070%=      5-min Rain = 0
KBWS 100130Z 18007KT 12/06 A3014 RMK A01 T01190064  RH  071%=      5-min Rain = 0
KBWS 100135Z 18008KT 12/07 A3014 RMK A01 T01180065  RH  072%=      5-min Rain = 0
KBWS 100140Z 18008KT 12/07 A3014 RMK A01 T01170065  RH  072%=      5-min Rain = 0
KBWS 100145Z 19007KT 12/06 A3014 RMK A01 T01150064  RH  073%=      5-min Rain = 0
KBWS 100150Z 19006KT 12/07 A3014 RMK A01 T01160065  RH  073%=      5-min Rain = 0
KBWS 100155Z 19007KT 12/07 A3014 RMK A01 T01150066  RH  073%=      5-min Rain = 0
KBWS 100200Z 20008KT 12/07 A3014 RMK A01 T01150067  RH  074%=      5-min Rain = 0
KBWS 100205Z 20007KT 11/07 A3014 RMK A01 T01130067  RH  075%=      5-min Rain = 0
KBWS 100210Z 20006KT 11/07 A3014 RMK A01 T01140068  RH  075%=      5-min Rain = 0
KBWS 100215Z 19006KT 12/07 A3014 RMK A01 T01150068  RH  075%=      5-min Rain = 0
KBWS 100220Z 19006KT 12/07 A3014 RMK A01 T01150068  RH  075%=      5-min Rain = 0
KBWS 100225Z 18005KT 11/07 A3014 RMK A01 T01140068  RH  075%=      5-min Rain = 0
KBWS 100230Z 18005KT 11/07 A3013 RMK A01 T01090066  RH  077%=      5-min Rain = 0
KBWS 100235Z 20006KT 11/07 A3013 RMK A01 T01070066  RH  078%=      5-min Rain = 0
KBWS 100240Z 20007KT 10/07 A3013 RMK A01 T01040065  RH  079%=      5-min Rain = 0
KBWS 100245Z 21007KT 10/06 A3013 RMK A01 T01020064  RH  079%=      5-min Rain = 0
KBWS 100250Z 22008KT 10/07 A3013 RMK A01 T00990065  RH  081%=      5-min Rain = 0
KBWS 100255Z 22008KT 10/07 A3013 RMK A01 T01000065  RH  081%=      5-min Rain = 0
KBWS 100300Z 23007KT 10/07 A3013 RMK A01 T01000066  RH  081%=      5-min Rain = 0
KBWS 100305Z 24006KT 10/07 A3013 RMK A01 T01000068  RH  082%=      5-min Rain = 0
KBWS 100310Z 23007KT 10/07 A3013 RMK A01 T01030070  RH  082%=      5-min Rain = 0
KBWS 100315Z 24007KT 10/07 A3013 RMK A01 T01030070  RH  082%=      5-min Rain = 0
KBWS 100320Z 24006KT 10/07 A3013 RMK A01 T01020069  RH  082%=      5-min Rain = 0
KBWS 100325Z 23005KT 10/07 A3013 RMK A01 T00970066  RH  083%=      5-min Rain = 0
KBWS 100330Z 24006KT 09/06 A3013 RMK A01 T00900064  RH  086%=      5-min Rain = 0
KBWS 100335Z 24007KT 09/07 A3013 RMK A01 T00900066  RH  087%=      5-min Rain = 0
KBWS 100340Z 24008KT 09/07 A3013 RMK A01 T00910067  RH  087%=      5-min Rain = 0
KBWS 100345Z 24009KT 10/07 A3013 RMK A01 T00950069  RH  086%=      5-min Rain = 0
KBWS 100350Z 23008KT 10/07 A3013 RMK A01 T00990072  RH  085%=      5-min Rain = 0
KBWS 100355Z 23007KT 10/07 A3013 RMK A01 T01000072  RH  085%=      5-min Rain = 0
KBWS 100400Z 23006KT 10/07 A3013 RMK A01 T00990071  RH  085%=      5-min Rain = 0
KBWS 100405Z 23006KT 10/07 A3013 RMK A01 T00970071  RH  086%=      5-min Rain = 0
KBWS 100410Z 23007KT 10/07 A3013 RMK A01 T00970072  RH  086%=      5-min Rain = 0
KBWS 100415Z 23008KT 10/07 A3013 RMK A01 T00980072  RH  086%=      5-min Rain = 0
KBWS 100420Z 23008KT 10/07 A3013 RMK A01 T00980072  RH  086%=      5-min Rain = 0
KBWS 100425Z 23007KT 10/07 A3013 RMK A01 T00980072  RH  087%=      5-min Rain = 0
KBWS 100430Z 23008KT 10/07 A3013 RMK A01 T00950071  RH  087%=      5-min Rain = 0
KBWS 100435Z 22009KT 09/07 A3013 RMK A01 T00930071  RH  088%=      5-min Rain = 0
KBWS 100440Z 22008KT 09/07 A3013 RMK A01 T00910070  RH  089%=      5-min Rain = 0
KBWS 100445Z 22008KT 09/07 A3013 RMK A01 T00900071  RH  090%=      5-min Rain = 0
KBWS 100450Z 23008KT 09/07 A3012 RMK A01 T00920073  RH  090%=      5-min Rain = 0
KBWS 100455Z 23008KT 10/08 A3012 RMK A01 T00970076  RH  089%=      5-min Rain = 0
KBWS 100500Z 22008KT 10/08 A3012 RMK A01 T01010078  RH  088%=      5-min Rain = 0
KBWS 100505Z 23007KT 10/08 A3012 RMK A01 T01020078  RH  087%=      5-min Rain = 0
KBWS 100510Z 24008KT 10/08 A3012 RMK A01 T01040078  RH  087%=      5-min Rain = 0
KBWS 100515Z 24009KT 10/08 A3012 RMK A01 T01020077  RH  087%=      5-min Rain = 0
KBWS 100520Z 23008KT 10/08 A3012 RMK A01 T01020078  RH  087%=      5-min Rain = 0
KBWS 100525Z 24008KT 10/08 A3012 RMK A01 T01010077  RH  087%=      5-min Rain = 0
KBWS 100530Z 24007KT 10/08 A3012 RMK A01 T00990076  RH  088%=      5-min Rain = 0
KBWS 100535Z 24007KT 10/08 A3012 RMK A01 T00980076  RH  089%=      5-min Rain = 0
KBWS 100540Z 23007KT 10/08 A3012 RMK A01 T00970076  RH  089%=      5-min Rain = 0
KBWS 100545Z 23007KT 10/08 A3012 RMK A01 T00980076  RH  089%=      5-min Rain = 0
KBWS 100550Z 23007KT 10/08 A3011 RMK A01 T00970076  RH  089%=      5-min Rain = 0
KBWS 100555Z 23007KT 10/08 A3011 RMK A01 T00970077  RH  089%=      5-min Rain = 0

Page generated in 0.0093 seconds.